Time;durP1;ratioP1;P1;durP2;ratioP2;P2;SDS_P1;SDS_P2;PMS_P1;PMS_P2;Temp;Humidity;BMP_temperature;BMP_pressure;BME280_temperature;BME280_humidity;BME280_pressure;Samples;Min_cycle;Max_cycle;Signal;HPM_P1;HPM_P2
2021/06/22 00:00:32;;;;;;;5.00;1.72;;;18.90;99.90;;;;;;2019901;71;21117;-76
2021/06/22 00:02:58;;;;;;;4.83;2.17;;;18.90;99.90;;;;;;2019859;71;21483;-76
2021/06/22 00:05:24;;;;;;;3.12;1.60;;;18.80;99.90;;;;;;2019768;71;21056;-76
2021/06/22 00:07:51;;;;;;;4.97;2.02;;;18.80;99.90;;;;;;2019830;71;21091;-76
2021/06/22 00:10:17;;;;;;;4.10;1.87;;;18.80;99.90;;;;;;2019833;71;21049;-77
2021/06/22 00:12:43;;;;;;;2.62;1.80;;;18.80;99.90;;;;;;2019877;71;21127;-77
2021/06/22 00:15:09;;;;;;;2.40;1.65;;;18.80;99.90;;;;;;2019797;71;21016;-77
2021/06/22 00:17:35;;;;;;;3.65;1.90;;;18.80;99.90;;;;;;2019768;71;21136;-75
2021/06/22 00:20:01;;;;;;;2.02;1.57;;;18.70;99.90;;;;;;2019779;71;21128;-75
2021/06/22 00:22:27;;;;;;;3.33;2.12;;;18.70;99.90;;;;;;2019712;71;21047;-75
2021/06/22 00:24:53;;;;;;;2.08;1.75;;;18.70;99.90;;;;;;2019712;71;21146;-76
2021/06/22 00:27:19;;;;;;;2.67;1.72;;;18.80;99.90;;;;;;2019707;71;21087;-75
2021/06/22 00:29:49;;;;;;;2.83;1.92;;;18.80;99.90;;;;;;2019710;71;21148;-76
2021/06/22 00:32:14;;;;;;;3.87;1.85;;;18.90;99.90;;;;;;2019283;71;21071;-75
2021/06/22 00:34:40;;;;;;;2.42;2.00;;;19.00;99.90;;;;;;2019672;71;21145;-75
2021/06/22 00:37:06;;;;;;;5.40;1.80;;;19.00;99.90;;;;;;2019715;71;21012;-76
2021/06/22 00:39:32;;;;;;;3.67;2.02;;;19.00;99.90;;;;;;2019706;71;21063;-75
2021/06/22 00:41:58;;;;;;;3.70;2.05;;;19.00;99.90;;;;;;2019700;71;21075;-76
2021/06/22 00:44:24;;;;;;;3.40;1.67;;;18.90;99.90;;;;;;2019726;71;21495;-75
2021/06/22 00:46:50;;;;;;;4.25;1.85;;;18.90;99.90;;;;;;2019818;71;21384;-75
2021/06/22 00:49:16;;;;;;;4.75;2.05;;;18.80;99.90;;;;;;2019908;71;21480;-75
2021/06/22 00:51:42;;;;;;;7.17;2.02;;;18.80;99.90;;;;;;2019691;71;21495;-76
2021/06/22 00:54:09;;;;;;;2.45;1.80;;;18.80;99.90;;;;;;2019844;71;21482;-76
2021/06/22 00:56:35;;;;;;;2.47;1.85;;;18.70;99.90;;;;;;2019606;71;21515;-76
2021/06/22 00:59:01;;;;;;;9.43;1.95;;;18.60;99.90;;;;;;2019848;71;21533;-76
2021/06/22 01:01:27;;;;;;;3.80;2.37;;;18.50;99.90;;;;;;2019558;71;21087;-75
2021/06/22 01:03:53;;;;;;;3.50;2.30;;;18.50;99.90;;;;;;2019776;71;21039;-76
2021/06/22 01:06:24;;;;;;;3.50;1.85;;;18.40;99.90;;;;;;2019788;71;21016;-75
2021/06/22 01:08:47;;;;;;;6.22;1.95;;;18.40;99.90;;;;;;2016807;71;21088;-76
2021/06/22 01:11:13;;;;;;;5.62;1.60;;;18.40;99.90;;;;;;2021715;71;21569;-76
2021/06/22 01:13:39;;;;;;;2.92;1.90;;;18.40;99.90;;;;;;2019696;71;21596;-76
2021/06/22 01:16:05;;;;;;;2.85;1.55;;;18.40;99.90;;;;;;2023737;71;21424;-76
2021/06/22 01:18:31;;;;;;;3.83;1.75;;;18.40;99.90;;;;;;2019973;71;21487;-75
2021/06/22 01:20:58;;;;;;;2.62;1.57;;;18.40;99.90;;;;;;2027352;69;21447;-76
2021/06/22 01:23:24;;;;;;;4.62;1.90;;;18.40;99.90;;;;;;2023896;71;21116;-75
2021/06/22 01:25:50;;;;;;;5.53;2.17;;;18.50;99.90;;;;;;2027938;71;21118;-75
2021/06/22 01:28:17;;;;;;;8.25;1.90;;;18.50;99.90;;;;;;2019902;71;21058;-75
2021/06/22 01:30:43;;;;;;;2.45;1.92;;;18.40;99.90;;;;;;2019899;71;21118;-75
2021/06/22 01:33:09;;;;;;;3.90;2.55;;;18.50;99.90;;;;;;2019910;71;21116;-76
2021/06/22 01:35:35;;;;;;;3.70;2.00;;;18.50;99.90;;;;;;2019897;71;21043;-75
2021/06/22 01:38:01;;;;;;;3.75;1.98;;;18.40;99.90;;;;;;2019880;71;21098;-76
2021/06/22 01:40:27;;;;;;;5.15;2.50;;;18.40;99.90;;;;;;2019587;71;21047;-76
2021/06/22 01:42:53;;;;;;;2.95;1.85;;;18.30;99.90;;;;;;2019793;71;21214;-76
2021/06/22 01:45:19;;;;;;;2.37;2.00;;;18.40;99.90;;;;;;2019603;71;21079;-76
2021/06/22 01:47:46;;;;;;;3.10;2.17;;;18.30;99.90;;;;;;2019690;71;21069;-76
2021/06/22 01:50:12;;;;;;;2.80;2.00;;;18.30;99.90;;;;;;2019708;71;21080;-76
2021/06/22 01:52:38;;;;;;;6.42;2.42;;;18.30;99.90;;;;;;2019714;71;21079;-76
2021/06/22 01:57:48;;;;;;;5.17;2.15;;;18.20;99.90;;;;;;2019790;71;21451;-76
2021/06/22 02:00:14;;;;;;;9.48;2.40;;;18.20;99.90;;;;;;2019646;71;21146;-76
2021/06/22 02:02:40;;;;;;;3.22;2.00;;;18.20;99.90;;;;;;2019786;71;21094;-76
2021/06/22 02:05:06;;;;;;;5.15;2.45;;;18.20;99.90;;;;;;2019715;71;21024;-76
2021/06/22 02:07:32;;;;;;;9.70;2.27;;;18.10;99.90;;;;;;2019783;71;21047;-76
2021/06/22 02:09:59;;;;;;;9.70;2.33;;;18.20;99.90;;;;;;2019889;71;21043;-76
2021/06/22 02:12:25;;;;;;;7.33;2.40;;;18.10;99.90;;;;;;2019882;71;21080;-76
2021/06/22 02:14:51;;;;;;;3.92;2.12;;;18.10;99.90;;;;;;2019823;71;21115;-76
2021/06/22 02:17:17;;;;;;;4.90;2.52;;;18.10;99.90;;;;;;2019811;71;21145;-76
2021/06/22 02:19:43;;;;;;;4.67;2.30;;;18.20;99.90;;;;;;2019762;71;21117;-76
2021/06/22 02:22:09;;;;;;;3.37;2.37;;;18.20;99.90;;;;;;2019812;71;21065;-76
2021/06/22 02:24:35;;;;;;;3.30;2.10;;;18.20;99.90;;;;;;2019770;71;21458;-76
2021/06/22 02:27:02;;;;;;;3.08;2.10;;;18.20;99.90;;;;;;2019663;71;21534;-76
2021/06/22 02:29:28;;;;;;;2.75;2.25;;;18.20;99.90;;;;;;2019793;71;21105;-76
2021/06/22 02:31:54;;;;;;;5.95;2.33;;;18.30;99.90;;;;;;2019686;71;21158;-75
2021/06/22 02:34:20;;;;;;;7.42;2.85;;;18.30;99.90;;;;;;2019657;71;21061;-76
2021/06/22 02:36:46;;;;;;;3.20;2.33;;;18.30;99.90;;;;;;2019666;71;21077;-76
2021/06/22 02:39:12;;;;;;;3.33;2.75;;;18.30;99.90;;;;;;2019623;71;21145;-76
2021/06/22 02:41:38;;;;;;;5.55;2.58;;;18.30;99.90;;;;;;2019744;71;21051;-76
2021/06/22 02:44:04;;;;;;;7.50;2.77;;;18.30;99.90;;;;;;2019779;71;21016;-76
2021/06/22 02:46:31;;;;;;;3.08;2.67;;;18.30;99.90;;;;;;2019781;71;21047;-76
2021/06/22 02:48:57;;;;;;;2.95;2.62;;;18.40;99.90;;;;;;2019666;71;21048;-76
2021/06/22 02:51:23;;;;;;;10.72;2.55;;;18.30;99.90;;;;;;2019797;71;21047;-76
2021/06/22 02:53:49;;;;;;;8.53;2.55;;;18.30;99.90;;;;;;2019660;71;21064;-76
2021/06/22 02:56:15;;;;;;;8.90;2.80;;;18.30;99.90;;;;;;2019633;71;21153;-76
2021/06/22 02:58:41;;;;;;;8.75;2.55;;;18.30;99.90;;;;;;2019756;71;21163;-76
2021/06/22 03:01:07;;;;;;;7.53;2.80;;;18.20;99.90;;;;;;2019479;71;21091;-76
2021/06/22 03:03:33;;;;;;;5.78;2.80;;;18.30;99.90;;;;;;2019695;71;21012;-76
2021/06/22 03:06:00;;;;;;;3.98;2.95;;;18.30;99.90;;;;;;2019541;71;21071;-76
2021/06/22 03:08:26;;;;;;;7.72;3.10;;;18.30;99.90;;;;;;2019735;71;21051;-76
2021/06/22 03:10:52;;;;;;;3.98;2.35;;;18.30;99.90;;;;;;2019536;71;21072;-76
2021/06/22 03:13:18;;;;;;;4.08;2.80;;;18.30;99.90;;;;;;2019706;71;21043;-76
2021/06/22 03:15:44;;;;;;;3.40;2.37;;;18.30;99.90;;;;;;2019530;71;21132;-76
2021/06/22 03:18:10;;;;;;;3.52;2.27;;;18.20;99.90;;;;;;2019691;71;21076;-76
2021/06/22 03:20:36;;;;;;;3.08;2.40;;;18.30;99.90;;;;;;2019499;71;21079;-77
2021/06/22 03:23:02;;;;;;;3.70;2.20;;;18.30;99.90;;;;;;2019809;71;21124;-76
2021/06/22 03:25:29;;;;;;;2.60;2.40;;;18.40;99.90;;;;;;2019467;71;21066;-75
2021/06/22 03:27:56;;;;;;;4.37;2.50;;;18.30;99.90;;;;;;2019642;71;21076;-76
2021/06/22 03:30:22;;;;;;;2.55;2.25;;;18.30;99.90;;;;;;2019435;71;21640;-76
2021/06/22 03:32:48;;;;;;;5.17;2.40;;;18.30;99.90;;;;;;2019646;71;21500;-76
2021/06/22 03:35:14;;;;;;;3.35;2.47;;;18.20;99.90;;;;;;2019416;71;21512;-76
2021/06/22 03:37:40;;;;;;;6.60;2.37;;;18.20;99.90;;;;;;2019782;71;21532;-76
2021/06/22 03:40:07;;;;;;;4.37;2.65;;;18.20;99.90;;;;;;2019385;71;21079;-76
2021/06/22 03:42:33;;;;;;;4.47;2.75;;;18.30;99.90;;;;;;2019645;71;21044;-76
2021/06/22 03:44:59;;;;;;;3.30;2.60;;;18.30;99.90;;;;;;2019763;71;21116;-76
2021/06/22 03:47:25;;;;;;;3.10;2.35;;;18.40;99.90;;;;;;2019658;71;21051;-76
2021/06/22 03:49:51;;;;;;;6.30;2.90;;;18.40;99.90;;;;;;2019555;71;21658;-76
2021/06/22 03:52:17;;;;;;;4.60;2.87;;;18.50;99.90;;;;;;2019531;71;21040;-76
2021/06/22 03:57:29;;;;;;;8.40;4.00;;;18.50;99.90;;;;;;1851288;77;21097;-76
2021/06/22 03:59:55;;;;;;;5.92;3.62;;;18.50;99.90;;;;;;1881867;76;21097;-76
2021/06/22 04:02:21;;;;;;;5.05;3.80;;;18.60;99.90;;;;;;1848714;78;21058;-76
2021/06/22 04:04:47;;;;;;;4.05;3.15;;;18.50;99.90;;;;;;1848729;78;21070;-76
2021/06/22 04:07:13;;;;;;;5.33;3.22;;;18.50;99.90;;;;;;1848765;78;21094;-76
2021/06/22 04:09:39;;;;;;;6.95;3.50;;;18.50;99.90;;;;;;1848783;78;21065;-76
2021/06/22 04:12:05;;;;;;;5.22;3.10;;;18.70;99.90;;;;;;1848877;75;21129;-76
2021/06/22 04:14:32;;;;;;;4.47;3.05;;;18.80;99.90;;;;;;1848853;78;21073;-76
2021/06/22 04:16:58;;;;;;;4.00;3.02;;;18.80;99.90;;;;;;1848870;78;21110;-76
2021/06/22 04:19:24;;;;;;;5.08;3.00;;;18.70;99.90;;;;;;1848850;78;21109;-77
2021/06/22 04:21:50;;;;;;;5.53;2.60;;;18.80;99.90;;;;;;1849021;78;21073;-76
2021/06/22 04:24:16;;;;;;;8.93;3.22;;;18.70;99.90;;;;;;1848975;78;21078;-76
2021/06/22 04:26:42;;;;;;;2.30;2.10;;;18.60;99.90;;;;;;1848930;78;21132;-76
2021/06/22 04:29:08;;;;;;;3.95;2.80;;;18.60;99.90;;;;;;1849044;78;21128;-76
2021/06/22 04:31:34;;;;;;;2.55;2.12;;;18.70;99.90;;;;;;1848893;75;21148;-75
2021/06/22 04:34:01;;;;;;;2.92;2.50;;;18.80;99.90;;;;;;1848907;78;21135;-78
2021/06/22 04:36:27;;;;;;;4.42;2.87;;;18.80;99.90;;;;;;1848906;78;21493;-75
2021/06/22 04:38:53;;;;;;;6.10;2.92;;;18.90;99.90;;;;;;1848831;78;21513;-72
2021/06/22 04:41:22;;;;;;;4.50;2.85;;;19.00;99.90;;;;;;1848794;78;21595;-73
2021/06/22 04:43:47;;;;;;;4.80;2.83;;;18.90;99.90;;;;;;1848466;78;21102;-72
2021/06/22 04:46:13;;;;;;;4.25;2.60;;;18.90;99.90;;;;;;1848803;78;21102;-72
2021/06/22 04:48:39;;;;;;;4.95;2.87;;;18.70;99.90;;;;;;1848888;78;21141;-72
2021/06/22 04:51:06;;;;;;;4.17;2.80;;;18.60;99.90;;;;;;1848859;78;21145;-74
2021/06/22 04:53:32;;;;;;;5.10;2.70;;;18.80;99.90;;;;;;1851128;76;21122;-73
2021/06/22 04:55:58;;;;;;;3.22;2.75;;;18.90;99.90;;;;;;1848874;78;21165;-73
2021/06/22 04:58:24;;;;;;;5.20;2.95;;;19.00;99.90;;;;;;1856670;76;21077;-73
2021/06/22 05:00:50;;;;;;;3.05;2.62;;;18.90;99.90;;;;;;1861684;77;21074;-73
2021/06/22 05:03:16;;;;;;;3.12;2.62;;;19.00;99.90;;;;;;1851163;76;21089;-73
2021/06/22 05:05:42;;;;;;;4.17;2.72;;;19.00;99.90;;;;;;1848706;75;21086;-73
2021/06/22 05:08:09;;;;;;;4.12;3.00;;;19.00;99.90;;;;;;1848931;77;21074;-72
2021/06/22 05:10:35;;;;;;;6.60;3.10;;;19.00;99.90;;;;;;1848773;78;21140;-73
2021/06/22 05:13:01;;;;;;;3.85;2.83;;;19.10;99.90;;;;;;1848985;78;21184;-74
2021/06/22 05:15:27;;;;;;;6.90;2.80;;;19.20;99.90;;;;;;1848918;78;21114;-73
2021/06/22 05:17:53;;;;;;;4.30;3.00;;;19.30;99.90;;;;;;1848834;78;21068;-73
2021/06/22 05:20:19;;;;;;;3.33;2.72;;;19.40;99.90;;;;;;1853685;76;21163;-73
2021/06/22 05:22:45;;;;;;;3.27;2.65;;;19.40;99.90;;;;;;1848934;76;21094;-74
2021/06/22 05:25:11;;;;;;;3.35;2.98;;;19.30;99.90;;;;;;1848859;78;21074;-72
2021/06/22 05:27:38;;;;;;;2.92;2.60;;;19.10;99.90;;;;;;1848978;78;21066;-73
2021/06/22 05:30:04;;;;;;;2.95;2.65;;;19.10;99.90;;;;;;1849022;78;21066;-72
2021/06/22 05:32:30;;;;;;;6.70;2.70;;;19.00;99.90;;;;;;1848767;78;21172;-74
2021/06/22 05:34:56;;;;;;;4.00;2.72;;;19.00;99.90;;;;;;1848983;78;21125;-72
2021/06/22 05:37:24;;;;;;;4.28;2.70;;;19.00;99.90;;;;;;1848767;78;21101;-72
2021/06/22 05:39:50;;;;;;;4.42;2.55;;;19.20;99.90;;;;;;1848896;78;21538;-72
2021/06/22 05:42:16;;;;;;;5.90;2.50;;;19.40;99.90;;;;;;1848821;78;21569;-72
2021/06/22 05:44:42;;;;;;;4.08;2.35;;;19.40;99.90;;;;;;1848865;77;21565;-72
2021/06/22 05:47:08;;;;;;;7.00;2.40;;;19.60;99.90;;;;;;1848788;77;21137;-73
2021/06/22 05:49:34;;;;;;;6.33;2.20;;;19.50;99.90;;;;;;1848819;78;21143;-73
2021/06/22 05:52:02;;;;;;;4.33;2.33;;;19.70;99.90;;;;;;1848887;78;21074;-73
2021/06/22 05:54:30;;;;;;;4.15;2.30;;;20.00;99.90;;;;;;1848800;77;21106;-73
2021/06/22 05:56:56;;;;;;;4.62;2.52;;;20.00;99.90;;;;;;1848931;78;21118;-72
2021/06/22 05:59:22;;;;;;;2.77;2.12;;;20.20;99.90;;;;;;1848786;78;21176;-72
2021/06/22 06:01:49;;;;;;;4.15;2.42;;;20.30;99.90;;;;;;1848825;78;21128;-76
2021/06/22 06:04:15;;;;;;;3.80;2.42;;;20.20;99.90;;;;;;1848696;78;21176;-75
2021/06/22 06:06:41;;;;;;;4.33;2.85;;;20.30;99.90;;;;;;1848766;78;21118;-76
2021/06/22 06:09:08;;;;;;;3.35;2.72;;;20.30;99.90;;;;;;1848895;78;21102;-76
2021/06/22 06:11:34;;;;;;;3.45;2.33;;;20.30;99.90;;;;;;1848855;78;21102;-77
2021/06/22 06:14:00;;;;;;;2.33;1.85;;;20.30;99.90;;;;;;1822844;78;21120;-77
2021/06/22 06:16:26;;;;;;;2.60;2.08;;;20.50;99.90;;;;;;1848959;78;21119;-75
2021/06/22 06:18:52;;;;;;;4.35;2.47;;;21.00;99.90;;;;;;1848808;75;21141;-74
2021/06/22 06:21:18;;;;;;;11.80;2.42;;;21.00;99.90;;;;;;1848878;78;21086;-77
2021/06/22 06:26:34;;;;;;;3.85;2.20;;;20.90;99.90;;;;;;1898396;75;21053;-76
2021/06/22 06:29:08;;;;;;;2.30;2.10;;;21.20;99.90;;;;;;1897596;75;21493;-76
2021/06/22 06:31:27;;;;;;;6.25;2.58;;;21.40;99.90;;;;;;1896109;75;21141;-77
2021/06/22 06:33:53;;;;;;;3.42;2.08;;;21.50;99.90;;;;;;1898443;75;21055;-76
2021/06/22 06:36:19;;;;;;;4.62;2.10;;;21.10;99.90;;;;;;1898490;75;21069;-77
2021/06/22 06:38:45;;;;;;;4.05;1.95;;;20.80;99.90;;;;;;1898400;75;21069;-84
2021/06/22 06:41:13;;;;;;;1.95;1.45;;;20.70;99.90;;;;;;1898351;75;21501;-79
2021/06/22 06:43:39;;;;;;;2.65;1.67;;;21.00;99.90;;;;;;1898403;75;21446;-77
2021/06/22 06:46:09;;;;;;;3.33;1.92;;;20.90;99.90;;;;;;1898389;75;21485;-79
2021/06/22 06:48:35;;;;;;;3.80;1.70;;;21.30;99.90;;;;;;1897686;75;21059;-77
2021/06/22 06:51:02;;;;;;;2.12;1.62;;;21.70;99.90;;;;;;1897959;75;21164;-78
2021/06/22 06:53:28;;;;;;;3.45;1.62;;;21.60;99.90;;;;;;1898387;75;21488;-78
2021/06/22 06:55:54;;;;;;;2.77;1.57;;;21.90;99.90;;;;;;1898402;75;21443;-77
2021/06/22 06:58:20;;;;;;;3.25;1.45;;;21.90;99.90;;;;;;1898420;75;21481;-78
2021/06/22 07:00:46;;;;;;;3.10;1.57;;;21.80;99.90;;;;;;1898418;75;21120;-78
2021/06/22 07:03:12;;;;;;;8.73;1.70;;;21.80;99.90;;;;;;1898437;75;21069;-78
2021/06/22 07:05:41;;;;;;;2.47;1.40;;;21.70;99.90;;;;;;1898499;75;21034;-78
2021/06/22 07:08:06;;;;;;;1.95;1.55;;;21.60;99.90;;;;;;1898306;74;21239;-77
2021/06/22 07:10:33;;;;;;;5.28;1.98;;;21.50;99.90;;;;;;1898364;75;21156;-78
2021/06/22 07:13:04;;;;;;;1.37;1.27;;;21.80;99.90;;;;;;1898450;75;21159;-77
2021/06/22 07:15:28;;;;;;;3.58;1.50;;;22.00;99.90;;;;;;1897952;74;21164;-78
2021/06/22 07:17:54;;;;;;;1.82;1.60;;;22.20;99.90;;;;;;1898555;75;21039;-78
2021/06/22 07:20:20;;;;;;;1.70;1.45;;;22.30;99.90;;;;;;1898524;75;21073;-78
2021/06/22 07:22:48;;;;;;;2.05;1.50;;;22.70;99.90;;;;;;1898377;74;21113;-77
2021/06/22 07:25:14;;;;;;;1.25;1.02;;;23.00;99.90;;;;;;1864430;75;21139;-78
2021/06/22 07:27:42;;;;;;;3.00;1.60;;;22.90;99.90;;;;;;1902120;75;21054;-78
2021/06/22 07:30:08;;;;;;;2.35;1.60;;;22.70;99.90;;;;;;1900351;75;21147;-79
2021/06/22 07:32:34;;;;;;;7.33;1.62;;;22.70;99.90;;;;;;1866007;75;21045;-78
2021/06/22 07:35:00;;;;;;;2.17;1.70;;;22.50;99.90;;;;;;1900043;75;21382;-79
2021/06/22 07:37:26;;;;;;;9.35;1.77;;;22.50;99.90;;;;;;1898358;75;21590;-79
2021/06/22 07:39:52;;;;;;;2.20;2.00;;;22.40;99.90;;;;;;1898311;74;21518;-79
2021/06/22 07:42:18;;;;;;;3.45;2.30;;;22.30;99.90;;;;;;1898391;75;21430;-78
2021/06/22 07:44:45;;;;;;;3.92;1.62;;;22.40;99.90;;;;;;1897130;75;21583;-78
2021/06/22 07:47:11;;;;;;;6.30;1.55;;;22.40;99.90;;;;;;1898544;75;21610;-79
2021/06/22 07:49:37;;;;;;;2.15;1.37;;;22.30;99.90;;;;;;1897220;74;21198;-78
2021/06/22 07:52:05;;;;;;;2.17;1.40;;;22.40;99.90;;;;;;1898490;75;21034;-77
2021/06/22 07:54:33;;;;;;;2.58;1.50;;;22.30;99.90;;;;;;1899203;75;21126;-77
2021/06/22 07:56:58;;;;;;;2.45;1.70;;;22.20;99.90;;;;;;1898465;74;21073;-77
2021/06/22 07:59:25;;;;;;;2.65;1.60;;;22.30;99.90;;;;;;1898685;75;21135;-77
2021/06/22 08:01:51;;;;;;;2.25;1.50;;;22.30;99.90;;;;;;1898548;74;21163;-78
2021/06/22 08:04:17;;;;;;;3.27;1.65;;;22.20;99.90;;;;;;1898693;75;21120;-77
2021/06/22 08:06:44;;;;;;;4.03;1.67;;;22.00;99.90;;;;;;1904904;75;21491;-77
2021/06/22 08:09:10;;;;;;;2.95;1.80;;;21.80;99.90;;;;;;1898530;75;21085;-79
2021/06/22 08:11:37;;;;;;;2.17;1.45;;;21.80;99.90;;;;;;1898576;75;21159;-77
2021/06/22 08:14:03;;;;;;;3.45;2.05;;;21.80;99.90;;;;;;1898555;75;21077;-78
2021/06/22 08:16:30;;;;;;;4.37;1.90;;;21.70;99.90;;;;;;1898604;75;21077;-78
2021/06/22 08:18:56;;;;;;;3.65;2.02;;;21.70;99.90;;;;;;1898578;75;21178;-76
2021/06/22 08:21:22;;;;;;;3.00;2.25;;;21.80;99.90;;;;;;1898418;75;21065;-77
2021/06/22 08:23:48;;;;;;;3.87;2.17;;;21.90;99.90;;;;;;1898650;75;21077;-77
2021/06/22 08:26:14;;;;;;;4.37;2.15;;;22.00;99.90;;;;;;1898572;75;21493;-77
2021/06/22 08:28:42;;;;;;;5.08;2.98;;;22.30;99.90;;;;;;1898506;75;21559;-78
2021/06/22 08:31:08;;;;;;;5.65;2.77;;;22.50;99.90;;;;;;1898554;75;21073;-78
2021/06/22 08:33:34;;;;;;;4.50;1.95;;;22.90;99.90;;;;;;1898693;75;21042;-78
2021/06/22 08:36:01;;;;;;;3.75;2.10;;;23.00;99.90;;;;;;1898424;75;21124;-78
2021/06/22 08:38:27;;;;;;;12.90;2.75;;;23.00;99.90;;;;;;1898404;75;21080;-78
2021/06/22 08:40:53;;;;;;;2.65;1.95;;;22.80;99.90;;;;;;1898387;75;21085;-78
2021/06/22 08:43:19;;;;;;;8.18;2.08;;;22.80;99.90;;;;;;1898526;74;21140;-78
2021/06/22 08:45:46;;;;;;;6.80;2.20;;;22.60;99.90;;;;;;1898106;76;21089;-79
2021/06/22 08:48:12;;;;;;;4.00;2.42;;;22.60;99.90;;;;;;1898289;74;21081;-78
2021/06/22 08:50:38;;;;;;;6.83;2.35;;;22.50;99.90;;;;;;1898292;76;21541;-78
2021/06/22 08:53:04;;;;;;;1.77;1.67;;;22.30;99.90;;;;;;1898334;76;21464;-76
2021/06/22 08:55:31;;;;;;;4.53;2.02;;;22.20;99.90;;;;;;1898227;75;21518;-78
2021/06/22 08:57:59;;;;;;;6.90;2.52;;;22.20;99.90;;;;;;1898369;76;21058;-77
2021/06/22 09:00:25;;;;;;;2.40;1.92;;;22.30;99.90;;;;;;1898111;75;21185;-80
2021/06/22 09:02:52;;;;;;;3.15;2.10;;;22.20;99.90;;;;;;1917413;74;21069;-78
2021/06/22 09:05:18;;;;;;;5.00;2.27;;;22.00;99.90;;;;;;1898295;75;21054;-78
2021/06/22 09:07:44;;;;;;;8.43;2.65;;;21.80;99.90;;;;;;1898177;75;21114;-79
2021/06/22 09:10:10;;;;;;;6.33;2.40;;;21.90;99.90;;;;;;1898262;74;21085;-77
2021/06/22 09:12:36;;;;;;;3.70;2.55;;;22.10;99.90;;;;;;1898250;75;21098;-76
2021/06/22 09:15:03;;;;;;;3.47;2.42;;;22.20;99.90;;;;;;1898064;75;21102;-76
2021/06/22 09:17:29;;;;;;;4.42;2.50;;;22.40;99.90;;;;;;1898317;75;21163;-75
2021/06/22 09:19:55;;;;;;;4.70;2.50;;;23.00;99.90;;;;;;1898058;75;21114;-74
2021/06/22 09:22:27;;;;;;;4.90;2.20;;;23.10;99.90;;;;;;1898211;76;21054;-74
2021/06/22 09:24:49;;;;;;;8.55;2.60;;;23.10;99.90;;;;;;1898660;74;21111;-74
2021/06/22 09:27:15;;;;;;;4.33;2.30;;;23.00;99.90;;;;;;1898200;76;21192;-73
2021/06/22 09:29:41;;;;;;;2.77;1.85;;;22.90;99.90;;;;;;1898158;76;21110;-74
2021/06/22 09:32:07;;;;;;;3.47;2.00;;;22.80;99.90;;;;;;1898302;76;21055;-74
2021/06/22 09:34:33;;;;;;;8.75;2.67;;;22.70;99.90;;;;;;1898139;76;21202;-73
2021/06/22 09:37:00;;;;;;;3.52;2.00;;;22.80;99.90;;;;;;1898189;76;21203;-74
2021/06/22 09:39:26;;;;;;;8.00;2.85;;;22.70;99.90;;;;;;1898225;76;21580;-73
2021/06/22 09:41:52;;;;;;;3.98;2.25;;;22.80;99.90;;;;;;1898000;74;21590;-74
2021/06/22 09:44:19;;;;;;;4.42;2.33;;;22.80;99.90;;;;;;1898267;76;21062;-74
2021/06/22 09:46:45;;;;;;;4.58;2.30;;;23.10;99.90;;;;;;1898399;76;21155;-74
2021/06/22 09:49:11;;;;;;;4.90;2.40;;;22.90;99.90;;;;;;1898374;75;21077;-74
2021/06/22 09:51:39;;;;;;;10.58;2.50;;;22.50;99.90;;;;;;1898319;76;21116;-75
2021/06/22 09:54:05;;;;;;;4.70;2.58;;;22.30;99.90;;;;;;1898356;76;21081;-74
2021/06/22 09:56:31;;;;;;;5.62;2.22;;;22.30;99.90;;;;;;1898138;76;21085;-74
2021/06/22 09:58:57;;;;;;;3.58;2.55;;;22.00;99.90;;;;;;1898227;76;21122;-74
2021/06/22 10:01:23;;;;;;;5.28;2.37;;;22.00;99.90;;;;;;1898197;76;21085;-74
2021/06/22 10:03:49;;;;;;;4.55;2.22;;;21.90;99.90;;;;;;1887669;76;21086;-75
2021/06/22 10:06:16;;;;;;;6.08;2.05;;;22.10;99.90;;;;;;1862404;77;21046;-75
2021/06/22 10:08:42;;;;;;;5.00;2.35;;;22.00;99.90;;;;;;1854333;77;21081;-75
2021/06/22 10:11:08;;;;;;;7.05;2.35;;;22.10;99.90;;;;;;1856431;76;21101;-74
2021/06/22 10:13:34;;;;;;;5.03;2.33;;;22.10;99.90;;;;;;1891474;76;21089;-74
2021/06/22 10:16:00;;;;;;;7.95;2.47;;;22.00;99.90;;;;;;1892584;76;21458;-74
2021/06/22 10:18:26;;;;;;;6.45;3.22;;;21.90;99.90;;;;;;1896694;76;21094;-74
2021/06/22 10:20:52;;;;;;;4.72;2.70;;;22.00;99.90;;;;;;1896715;76;21525;-74
2021/06/22 10:23:20;;;;;;;5.85;2.75;;;22.10;99.90;;;;;;1895736;75;21078;-75
2021/06/22 10:25:48;;;;;;;3.85;2.52;;;21.60;99.90;;;;;;1894588;76;21576;-72
2021/06/22 10:28:14;;;;;;;3.12;2.45;;;21.50;99.90;;;;;;1895493;74;21107;-73
2021/06/22 10:30:40;;;;;;;3.52;2.37;;;21.40;99.90;;;;;;1895683;74;21086;-71
2021/06/22 10:33:08;;;;;;;4.20;2.42;;;21.40;99.90;;;;;;1895358;76;21192;-72
2021/06/22 10:35:34;;;;;;;2.98;2.50;;;21.10;99.90;;;;;;1895599;74;21085;-72
2021/06/22 10:38:08;;;;;;;6.05;2.60;;;21.10;99.90;;;;;;1898390;75;21160;-71
2021/06/22 10:40:28;;;;;;;6.15;3.00;;;21.10;99.90;;;;;;1862605;76;21504;-70
2021/06/22 10:42:54;;;;;;;8.50;3.33;;;21.00;99.90;;;;;;1898001;76;21519;-71
2021/06/22 10:45:20;;;;;;;5.58;3.45;;;20.90;99.90;;;;;;1898227;76;21089;-71
2021/06/22 10:47:46;;;;;;;7.87;2.27;;;20.90;99.90;;;;;;1897987;76;21103;-72
2021/06/22 10:50:12;;;;;;;4.62;2.58;;;21.00;99.90;;;;;;1898252;76;21054;-73
2021/06/22 10:52:39;;;;;;;4.47;2.42;;;21.20;99.90;;;;;;1917546;74;21131;-72
2021/06/22 10:55:05;;;;;;;4.40;2.58;;;21.30;99.90;;;;;;1898030;76;21523;-73
2021/06/22 10:57:31;;;;;;;4.15;2.52;;;21.10;99.90;;;;;;1898112;76;21583;-73
2021/06/22 10:59:57;;;;;;;8.93;3.12;;;21.00;99.90;;;;;;1898049;74;21613;-73
2021/06/22 11:02:23;;;;;;;4.30;2.50;;;21.10;99.90;;;;;;1898201;75;21513;-73
2021/06/22 11:04:49;;;;;;;11.63;3.05;;;21.10;99.90;;;;;;1898142;76;21553;-72
2021/06/22 11:07:16;;;;;;;3.70;2.62;;;21.10;99.90;;;;;;1898191;76;21257;-72
2021/06/22 11:09:43;;;;;;;2.55;2.08;;;21.10;99.90;;;;;;1897934;76;21134;-73
2021/06/22 11:12:09;;;;;;;4.03;2.50;;;21.00;99.90;;;;;;1898088;76;21129;-73
2021/06/22 11:14:35;;;;;;;6.33;2.35;;;21.00;99.90;;;;;;1898150;76;21118;-72
2021/06/22 11:17:01;;;;;;;6.50;2.35;;;20.90;99.90;;;;;;1898294;76;21110;-72
2021/06/22 11:19:27;;;;;;;2.67;1.90;;;21.00;99.90;;;;;;1898346;74;21140;-72
2021/06/22 11:21:53;;;;;;;3.10;2.40;;;21.10;99.90;;;;;;1898553;74;21085;-70
2021/06/22 11:24:19;;;;;;;3.90;2.20;;;21.10;99.90;;;;;;1901779;76;21054;-69
2021/06/22 11:26:46;;;;;;;3.37;2.58;;;21.10;99.90;;;;;;1900456;74;21094;-72
2021/06/22 11:29:12;;;;;;;10.18;2.50;;;21.00;99.90;;;;;;1898459;75;21122;-72
2021/06/22 11:31:38;;;;;;;4.87;2.00;;;21.10;99.90;;;;;;1898423;76;21117;-71
2021/06/22 11:34:05;;;;;;;4.30;2.02;;;21.00;99.90;;;;;;1898556;76;21085;-72
2021/06/22 11:36:31;;;;;;;6.95;2.02;;;21.10;99.90;;;;;;1898219;76;21593;-73
2021/06/22 11:38:57;;;;;;;3.15;2.60;;;21.10;99.90;;;;;;1898271;75;21227;-73
2021/06/22 11:41:23;;;;;;;5.10;2.47;;;21.00;99.90;;;;;;1898174;75;21155;-72
2021/06/22 11:43:49;;;;;;;3.72;2.22;;;20.90;99.90;;;;;;1898238;75;21103;-71
2021/06/22 11:46:15;;;;;;;4.30;2.30;;;21.00;99.90;;;;;;1898204;75;21085;-72
2021/06/22 11:48:42;;;;;;;5.47;2.17;;;21.00;99.90;;;;;;1898292;76;21150;-71
2021/06/22 11:51:08;;;;;;;4.78;2.02;;;21.00;99.90;;;;;;1898306;75;21133;-72
2021/06/22 11:53:34;;;;;;;6.85;2.98;;;20.90;99.90;;;;;;1898326;76;21165;-72
2021/06/22 11:56:00;;;;;;;5.00;2.58;;;20.80;99.90;;;;;;1898200;76;21114;-72
2021/06/22 11:58:26;;;;;;;3.35;2.67;;;20.70;99.90;;;;;;1898304;76;21085;-72
2021/06/22 12:00:53;;;;;;;6.35;2.70;;;20.70;99.90;;;;;;1898283;76;21529;-71
2021/06/22 12:03:20;;;;;;;10.45;2.85;;;20.80;99.90;;;;;;1898281;76;21093;-72
2021/06/22 12:05:46;;;;;;;4.83;2.70;;;20.70;99.90;;;;;;1898442;75;21532;-72
2021/06/22 12:08:13;;;;;;;4.35;2.90;;;20.80;99.90;;;;;;1898227;75;21532;-72
2021/06/22 12:10:39;;;;;;;8.05;2.67;;;20.80;99.90;;;;;;1898506;76;21159;-72
2021/06/22 12:13:05;;;;;;;5.25;2.58;;;20.90;99.90;;;;;;1898510;76;21159;-73
2021/06/22 12:15:31;;;;;;;4.55;2.40;;;20.80;99.90;;;;;;1898437;76;21151;-73
2021/06/22 12:17:57;;;;;;;5.87;2.50;;;20.70;99.90;;;;;;1898484;76;21094;-73
2021/06/22 12:20:23;;;;;;;5.75;3.00;;;20.60;99.90;;;;;;1898508;74;21086;-73
2021/06/22 12:22:50;;;;;;;11.38;2.60;;;20.60;99.90;;;;;;1892806;76;21191;-73
2021/06/22 12:25:16;;;;;;;10.13;2.47;;;20.50;99.90;;;;;;1898293;75;21082;-73
2021/06/22 12:27:42;;;;;;;4.12;2.15;;;20.50;99.90;;;;;;1895003;75;21166;-73
2021/06/22 12:30:08;;;;;;;3.55;2.12;;;20.50;99.90;;;;;;1898440;75;21128;-72
2021/06/22 12:32:34;;;;;;;5.70;2.15;;;20.40;99.90;;;;;;1898162;76;21106;-73
2021/06/22 12:35:00;;;;;;;4.60;1.90;;;20.20;99.90;;;;;;1898277;76;21117;-73
2021/06/22 12:37:27;;;;;;;4.37;2.33;;;20.20;99.90;;;;;;1898216;76;21188;-75
2021/06/22 12:39:54;;;;;;;3.80;2.25;;;20.30;99.90;;;;;;1898256;75;21179;-75
2021/06/22 12:42:20;;;;;;;3.17;2.22;;;20.30;99.90;;;;;;1898287;76;21151;-75
2021/06/22 12:44:46;;;;;;;4.58;1.90;;;20.20;99.90;;;;;;1898147;76;21125;-75
2021/06/22 12:47:12;;;;;;;3.92;1.72;;;20.10;99.90;;;;;;1898373;75;21089;-74